sensor_id;sensor_type;location;lat;lon;timestamp;temperature;humidity
29731;DHT22;16639;51.488;0.152;2023-02-15T00:01:21;5.30;99.90
29731;DHT22;16639;51.488;0.152;2023-02-15T00:04:20;5.30;99.90
29731;DHT22;16639;51.488;0.152;2023-02-15T00:07:17;6.70;99.90
29731;DHT22;16639;51.488;0.152;2023-02-15T00:09:55;5.30;99.90
29731;DHT22;16639;51.488;0.152;2023-02-15T00:12:47;5.20;99.90
29731;DHT22;16639;51.488;0.152;2023-02-15T00:15:29;5.20;99.90
29731;DHT22;16639;51.488;0.152;2023-02-15T00:18:13;5.20;99.90
29731;DHT22;16639;51.488;0.152;2023-02-15T00:21:21;2.20;99.90
29731;DHT22;16639;51.488;0.152;2023-02-15T00:40:14;5.10;99.90
29731;DHT22;16639;51.488;0.152;2023-02-15T00:42:41;5.00;99.90
29731;DHT22;16639;51.488;0.152;2023-02-15T00:45:09;5.00;99.90
29731;DHT22;16639;51.488;0.152;2023-02-15T00:47:36;4.90;99.90
29731;DHT22;16639;51.488;0.152;2023-02-15T00:50:04;5.00;99.90
29731;DHT22;16639;51.488;0.152;2023-02-15T00:52:32;4.90;99.90
29731;DHT22;16639;51.488;0.152;2023-02-15T00:54:59;4.80;99.90
29731;DHT22;16639;51.488;0.152;2023-02-15T00:57:27;5.20;99.90
29731;DHT22;16639;51.488;0.152;2023-02-15T00:59:54;4.80;99.90
29731;DHT22;16639;51.488;0.152;2023-02-15T01:02:21;5.10;99.90
29731;DHT22;16639;51.488;0.152;2023-02-15T01:04:48;4.70;99.90
29731;DHT22;16639;51.488;0.152;2023-02-15T01:07:16;4.80;99.90
29731;DHT22;16639;51.488;0.152;2023-02-15T01:09:43;4.80;99.90
29731;DHT22;16639;51.488;0.152;2023-02-15T01:12:10;4.80;99.90
29731;DHT22;16639;51.488;0.152;2023-02-15T01:14:38;4.80;99.90
29731;DHT22;16639;51.488;0.152;2023-02-15T01:17:05;4.80;99.90
29731;DHT22;16639;51.488;0.152;2023-02-15T01:19:32;4.80;99.90
29731;DHT22;16639;51.488;0.152;2023-02-15T01:22:00;4.80;99.90
29731;DHT22;16639;51.488;0.152;2023-02-15T01:24:27;5.60;99.90
29731;DHT22;16639;51.488;0.152;2023-02-15T01:26:54;4.80;99.90
29731;DHT22;16639;51.488;0.152;2023-02-15T01:29:22;4.80;99.90
29731;DHT22;16639;51.488;0.152;2023-02-15T01:31:49;4.80;99.90
29731;DHT22;16639;51.488;0.152;2023-02-15T01:34:17;4.80;99.90
29731;DHT22;16639;51.488;0.152;2023-02-15T01:36:44;4.90;99.90
29731;DHT22;16639;51.488;0.152;2023-02-15T01:39:11;5.40;99.90
29731;DHT22;16639;51.488;0.152;2023-02-15T01:41:38;5.00;99.90
29731;DHT22;16639;51.488;0.152;2023-02-15T01:44:45;4.90;99.90
29731;DHT22;16639;51.488;0.152;2023-02-15T01:47:26;4.90;99.90
29731;DHT22;16639;51.488;0.152;2023-02-15T01:50:28;4.90;99.90
29731;DHT22;16639;51.488;0.152;2023-02-15T01:53:34;5.00;99.90
29731;DHT22;16639;51.488;0.152;2023-02-15T01:56:11;4.90;99.90
29731;DHT22;16639;51.488;0.152;2023-02-15T01:58:40;4.90;99.90
29731;DHT22;16639;51.488;0.152;2023-02-15T02:01:08;4.80;99.90
29731;DHT22;16639;51.488;0.152;2023-02-15T02:06:06;4.80;99.90
29731;DHT22;16639;51.488;0.152;2023-02-15T02:08:33;4.80;99.90
29731;DHT22;16639;51.488;0.152;2023-02-15T02:11:01;4.80;99.90
29731;DHT22;16639;51.488;0.152;2023-02-15T02:13:28;5.50;99.90
29731;DHT22;16639;51.488;0.152;2023-02-15T02:16:08;5.10;99.90
29731;DHT22;16639;51.488;0.152;2023-02-15T02:27:48;4.90;99.90
29731;DHT22;16639;51.488;0.152;2023-02-15T02:30:27;4.90;99.90
29731;DHT22;16639;51.488;0.152;2023-02-15T02:33:19;4.90;99.90
29731;DHT22;16639;51.488;0.152;2023-02-15T02:36:18;4.90;99.90
29731;DHT22;16639;51.488;0.152;2023-02-15T02:44:29;4.90;99.90
29731;DHT22;16639;51.488;0.152;2023-02-15T02:49:52;4.90;99.90
29731;DHT22;16639;51.488;0.152;2023-02-15T02:55:19;4.80;99.90
29731;DHT22;16639;51.488;0.152;2023-02-15T03:00:37;4.80;99.90
29731;DHT22;16639;51.488;0.152;2023-02-15T03:03:15;4.80;99.90
29731;DHT22;16639;51.488;0.152;2023-02-15T03:05:49;4.80;99.90
29731;DHT22;16639;51.488;0.152;2023-02-15T03:08:19;4.70;99.90
29731;DHT22;16639;51.488;0.152;2023-02-15T03:10:52;4.70;99.90
29731;DHT22;16639;51.488;0.152;2023-02-15T03:13:20;4.80;99.90
29731;DHT22;16639;51.488;0.152;2023-02-15T03:15:50;4.80;99.90
29731;DHT22;16639;51.488;0.152;2023-02-15T03:18:41;4.70;99.90
29731;DHT22;16639;51.488;0.152;2023-02-15T03:21:11;5.70;99.90
29731;DHT22;16639;51.488;0.152;2023-02-15T03:23:56;5.50;99.90
29731;DHT22;16639;51.488;0.152;2023-02-15T03:26:25;4.70;99.90
29731;DHT22;16639;51.488;0.152;2023-02-15T03:28:55;4.40;99.90
29731;DHT22;16639;51.488;0.152;2023-02-15T03:31:26;4.60;99.90
29731;DHT22;16639;51.488;0.152;2023-02-15T03:34:02;5.90;99.90
29731;DHT22;16639;51.488;0.152;2023-02-15T03:36:44;4.70;99.90
29731;DHT22;16639;51.488;0.152;2023-02-15T03:39:33;4.90;99.90
29731;DHT22;16639;51.488;0.152;2023-02-15T03:42:10;4.60;99.90
29731;DHT22;16639;51.488;0.152;2023-02-15T03:45:11;4.60;99.90
29731;DHT22;16639;51.488;0.152;2023-02-15T03:47:46;4.90;99.90
29731;DHT22;16639;51.488;0.152;2023-02-15T03:50:32;4.50;99.90
29731;DHT22;16639;51.488;0.152;2023-02-15T03:53:22;4.50;99.90
29731;DHT22;16639;51.488;0.152;2023-02-15T03:55:53;4.40;99.90
29731;DHT22;16639;51.488;0.152;2023-02-15T03:58:21;4.30;99.90
29731;DHT22;16639;51.488;0.152;2023-02-15T04:01:18;4.30;99.90
29731;DHT22;16639;51.488;0.152;2023-02-15T04:04:11;4.30;99.90
29731;DHT22;16639;51.488;0.152;2023-02-15T04:06:42;4.30;99.90
29731;DHT22;16639;51.488;0.152;2023-02-15T04:09:10;4.20;99.90
29731;DHT22;16639;51.488;0.152;2023-02-15T04:11:56;4.20;99.90
29731;DHT22;16639;51.488;0.152;2023-02-15T04:14:23;4.10;99.90
29731;DHT22;16639;51.488;0.152;2023-02-15T04:17:09;4.10;99.90
29731;DHT22;16639;51.488;0.152;2023-02-15T04:19:37;4.10;99.90
29731;DHT22;16639;51.488;0.152;2023-02-15T04:22:23;4.10;99.90
29731;DHT22;16639;51.488;0.152;2023-02-15T04:25:09;4.10;99.90
29731;DHT22;16639;51.488;0.152;2023-02-15T04:27:36;4.60;99.90
29731;DHT22;16639;51.488;0.152;2023-02-15T04:30:05;3.20;99.90
29731;DHT22;16639;51.488;0.152;2023-02-15T04:32:33;4.00;99.90
29731;DHT22;16639;51.488;0.152;2023-02-15T04:35:02;4.00;99.90
29731;DHT22;16639;51.488;0.152;2023-02-15T04:37:29;4.00;99.90
29731;DHT22;16639;51.488;0.152;2023-02-15T04:39:57;4.00;99.90
29731;DHT22;16639;51.488;0.152;2023-02-15T04:42:26;4.00;99.90
29731;DHT22;16639;51.488;0.152;2023-02-15T04:44:54;4.10;99.90
29731;DHT22;16639;51.488;0.152;2023-02-15T04:47:21;4.10;99.90
29731;DHT22;16639;51.488;0.152;2023-02-15T04:49:48;4.10;99.90
29731;DHT22;16639;51.488;0.152;2023-02-15T04:52:16;4.10;99.90
29731;DHT22;16639;51.488;0.152;2023-02-15T04:54:45;4.00;99.90
29731;DHT22;16639;51.488;0.152;2023-02-15T04:57:12;4.10;99.90
29731;DHT22;16639;51.488;0.152;2023-02-15T04:59:40;4.10;99.90
29731;DHT22;16639;51.488;0.152;2023-02-15T05:02:07;4.00;99.90
29731;DHT22;16639;51.488;0.152;2023-02-15T05:04:35;4.10;99.90
29731;DHT22;16639;51.488;0.152;2023-02-15T05:07:03;4.10;99.90
29731;DHT22;16639;51.488;0.152;2023-02-15T05:09:30;4.10;99.90
29731;DHT22;16639;51.488;0.152;2023-02-15T05:11:57;4.10;99.90
29731;DHT22;16639;51.488;0.152;2023-02-15T05:14:25;4.10;99.90
29731;DHT22;16639;51.488;0.152;2023-02-15T05:16:52;4.20;99.90
29731;DHT22;16639;51.488;0.152;2023-02-15T05:19:21;4.20;99.90
29731;DHT22;16639;51.488;0.152;2023-02-15T05:21:50;3.80;99.90
29731;DHT22;16639;51.488;0.152;2023-02-15T05:24:17;4.20;99.90
29731;DHT22;16639;51.488;0.152;2023-02-15T05:27:03;4.20;99.90
29731;DHT22;16639;51.488;0.152;2023-02-15T05:29:49;4.30;99.90
29731;DHT22;16639;51.488;0.152;2023-02-15T05:32:16;4.20;99.90
29731;DHT22;16639;51.488;0.152;2023-02-15T05:34:44;4.20;99.90
29731;DHT22;16639;51.488;0.152;2023-02-15T05:37:11;4.30;99.90
29731;DHT22;16639;51.488;0.152;2023-02-15T05:39:38;4.30;99.90
29731;DHT22;16639;51.488;0.152;2023-02-15T05:42:06;4.30;99.90
29731;DHT22;16639;51.488;0.152;2023-02-15T05:44:33;4.30;99.90
29731;DHT22;16639;51.488;0.152;2023-02-15T05:47:00;4.40;99.90
29731;DHT22;16639;51.488;0.152;2023-02-15T05:49:29;4.40;99.90
29731;DHT22;16639;51.488;0.152;2023-02-15T05:51:57;4.40;99.90
29731;DHT22;16639;51.488;0.152;2023-02-15T05:54:24;4.00;99.90
29731;DHT22;16639;51.488;0.152;2023-02-15T05:56:52;4.20;99.90
29731;DHT22;16639;51.488;0.152;2023-02-15T05:59:19;4.30;99.90
29731;DHT22;16639;51.488;0.152;2023-02-15T06:01:46;4.30;99.90
29731;DHT22;16639;51.488;0.152;2023-02-15T06:04:14;4.40;99.90
29731;DHT22;16639;51.488;0.152;2023-02-15T06:06:41;4.30;99.90
29731;DHT22;16639;51.488;0.152;2023-02-15T06:09:10;4.40;99.90
29731;DHT22;16639;51.488;0.152;2023-02-15T06:11:38;4.40;99.90
29731;DHT22;16639;51.488;0.152;2023-02-15T06:14:05;4.40;99.90
29731;DHT22;16639;51.488;0.152;2023-02-15T06:16:32;5.40;99.90
29731;DHT22;16639;51.488;0.152;2023-02-15T06:19:00;4.40;99.90
29731;DHT22;16639;51.488;0.152;2023-02-15T06:21:29;4.50;99.90
29731;DHT22;16639;51.488;0.152;2023-02-15T06:23:56;4.50;99.90
29731;DHT22;16639;51.488;0.152;2023-02-15T06:26:24;4.50;99.90
29731;DHT22;16639;51.488;0.152;2023-02-15T06:28:52;4.40;99.90
29731;DHT22;16639;51.488;0.152;2023-02-15T06:31:19;4.40;99.90
29731;DHT22;16639;51.488;0.152;2023-02-15T06:33:47;4.40;99.90
29731;DHT22;16639;51.488;0.152;2023-02-15T06:36:14;4.40;99.90
29731;DHT22;16639;51.488;0.152;2023-02-15T06:38:41;4.40;99.90
29731;DHT22;16639;51.488;0.152;2023-02-15T06:41:09;4.40;99.90
29731;DHT22;16639;51.488;0.152;2023-02-15T06:43:36;4.40;99.90
29731;DHT22;16639;51.488;0.152;2023-02-15T06:46:06;4.40;99.90
29731;DHT22;16639;51.488;0.152;2023-02-15T06:48:34;4.40;99.90
29731;DHT22;16639;51.488;0.152;2023-02-15T06:51:01;4.40;99.90
29731;DHT22;16639;51.488;0.152;2023-02-15T06:53:28;4.30;99.90
29731;DHT22;16639;51.488;0.152;2023-02-15T06:56:06;4.30;99.90
29731;DHT22;16639;51.488;0.152;2023-02-15T06:58:37;4.20;99.90
29731;DHT22;16639;51.488;0.152;2023-02-15T07:01:06;4.20;99.90
29731;DHT22;16639;51.488;0.152;2023-02-15T07:03:34;4.20;99.90
29731;DHT22;16639;51.488;0.152;2023-02-15T07:06:03;4.70;99.90
29731;DHT22;16639;51.488;0.152;2023-02-15T07:08:36;4.30;99.90
29731;DHT22;16639;51.488;0.152;2023-02-15T07:11:04;4.30;99.90
29731;DHT22;16639;51.488;0.152;2023-02-15T07:13:50;4.30;99.90
29731;DHT22;16639;51.488;0.152;2023-02-15T07:16:19;4.40;99.90
29731;DHT22;16639;51.488;0.152;2023-02-15T07:18:47;3.90;99.90
29731;DHT22;16639;51.488;0.152;2023-02-15T07:21:15;4.40;99.90
29731;DHT22;16639;51.488;0.152;2023-02-15T07:23:42;4.50;99.90
29731;DHT22;16639;51.488;0.152;2023-02-15T07:26:09;4.40;99.90
29731;DHT22;16639;51.488;0.152;2023-02-15T07:28:37;4.50;99.90
29731;DHT22;16639;51.488;0.152;2023-02-15T07:31:04;4.50;99.90
29731;DHT22;16639;51.488;0.152;2023-02-15T07:33:32;4.50;99.90
29731;DHT22;16639;51.488;0.152;2023-02-15T07:36:03;4.60;99.90
29731;DHT22;16639;51.488;0.152;2023-02-15T07:38:35;5.10;99.90
29731;DHT22;16639;51.488;0.152;2023-02-15T07:41:09;4.50;99.90
29731;DHT22;16639;51.488;0.152;2023-02-15T07:43:39;4.60;99.90
29731;DHT22;16639;51.488;0.152;2023-02-15T07:46:10;4.50;99.90
29731;DHT22;16639;51.488;0.152;2023-02-15T07:48:39;4.60;99.90
29731;DHT22;16639;51.488;0.152;2023-02-15T07:51:09;4.60;99.90
29731;DHT22;16639;51.488;0.152;2023-02-15T07:53:40;4.60;99.90
29731;DHT22;16639;51.488;0.152;2023-02-15T07:56:10;4.70;99.90
29731;DHT22;16639;51.488;0.152;2023-02-15T07:58:38;4.70;99.90
29731;DHT22;16639;51.488;0.152;2023-02-15T08:01:30;4.70;99.90
29731;DHT22;16639;51.488;0.152;2023-02-15T08:03:59;4.80;99.90
29731;DHT22;16639;51.488;0.152;2023-02-15T08:06:31;4.90;99.90
29731;DHT22;16639;51.488;0.152;2023-02-15T08:08:59;4.90;99.90
29731;DHT22;16639;51.488;0.152;2023-02-15T08:11:30;4.90;99.90
29731;DHT22;16639;51.488;0.152;2023-02-15T08:14:09;4.90;99.90
29731;DHT22;16639;51.488;0.152;2023-02-15T08:16:46;5.00;99.90
29731;DHT22;16639;51.488;0.152;2023-02-15T08:21:54;5.20;99.90
29731;DHT22;16639;51.488;0.152;2023-02-15T08:24:27;5.30;99.90
29731;DHT22;16639;51.488;0.152;2023-02-15T08:26:55;5.20;99.90
29731;DHT22;16639;51.488;0.152;2023-02-15T08:29:26;5.30;99.90
29731;DHT22;16639;51.488;0.152;2023-02-15T08:31:56;5.30;99.90
29731;DHT22;16639;51.488;0.152;2023-02-15T08:34:26;5.40;99.90
29731;DHT22;16639;51.488;0.152;2023-02-15T08:36:53;5.50;99.90
29731;DHT22;16639;51.488;0.152;2023-02-15T08:39:20;5.60;99.90
29731;DHT22;16639;51.488;0.152;2023-02-15T08:41:48;5.70;99.90
29731;DHT22;16639;51.488;0.152;2023-02-15T08:44:17;5.80;99.90
29731;DHT22;16639;51.488;0.152;2023-02-15T08:46:46;5.70;99.90
29731;DHT22;16639;51.488;0.152;2023-02-15T08:49:17;5.20;99.90
29731;DHT22;16639;51.488;0.152;2023-02-15T08:51:46;5.90;99.90
29731;DHT22;16639;51.488;0.152;2023-02-15T08:54:15;6.00;99.90
29731;DHT22;16639;51.488;0.152;2023-02-15T08:56:44;6.10;99.90
29731;DHT22;16639;51.488;0.152;2023-02-15T08:59:15;6.20;99.90
29731;DHT22;16639;51.488;0.152;2023-02-15T09:01:44;6.20;99.90
29731;DHT22;16639;51.488;0.152;2023-02-15T09:04:12;6.30;99.90
29731;DHT22;16639;51.488;0.152;2023-02-15T09:06:41;6.30;99.90
29731;DHT22;16639;51.488;0.152;2023-02-15T09:09:24;6.30;99.90
29731;DHT22;16639;51.488;0.152;2023-02-15T09:11:51;6.40;99.90
29731;DHT22;16639;51.488;0.152;2023-02-15T09:14:25;6.50;99.90
29731;DHT22;16639;51.488;0.152;2023-02-15T09:16:53;6.50;99.90
29731;DHT22;16639;51.488;0.152;2023-02-15T09:19:24;7.00;99.90
29731;DHT22;16639;51.488;0.152;2023-02-15T09:21:52;6.70;99.90
29731;DHT22;16639;51.488;0.152;2023-02-15T09:24:19;6.80;99.90
29731;DHT22;16639;51.488;0.152;2023-02-15T09:26:47;6.90;99.90
29731;DHT22;16639;51.488;0.152;2023-02-15T09:29:16;7.00;99.90
29731;DHT22;16639;51.488;0.152;2023-02-15T09:31:47;7.10;99.90
29731;DHT22;16639;51.488;0.152;2023-02-15T09:34:18;7.20;99.90
29731;DHT22;16639;51.488;0.152;2023-02-15T09:36:47;7.40;99.90
29731;DHT22;16639;51.488;0.152;2023-02-15T10:01:47;8.40;99.90
29731;DHT22;16639;51.488;0.152;2023-02-15T10:04:40;8.70;99.90
29731;DHT22;16639;51.488;0.152;2023-02-15T10:10:05;8.50;99.90
29731;DHT22;16639;51.488;0.152;2023-02-15T10:18:12;8.50;99.90
29731;DHT22;16639;51.488;0.152;2023-02-15T10:26:47;8.70;99.90
29731;DHT22;16639;51.488;0.152;2023-02-15T10:32:23;8.80;99.90
29731;DHT22;16639;51.488;0.152;2023-02-15T10:34:53;8.80;99.90
29731;DHT22;16639;51.488;0.152;2023-02-15T10:37:34;8.90;99.90
29731;DHT22;16639;51.488;0.152;2023-02-15T10:45:19;8.80;99.90
29731;DHT22;16639;51.488;0.152;2023-02-15T10:50:58;8.90;99.90
29731;DHT22;16639;51.488;0.152;2023-02-15T10:56:37;8.90;99.90
29731;DHT22;16639;51.488;0.152;2023-02-15T11:02:18;8.80;99.90
29731;DHT22;16639;51.488;0.152;2023-02-15T11:04:51;8.90;99.90
29731;DHT22;16639;51.488;0.152;2023-02-15T11:07:28;8.90;99.90
29731;DHT22;16639;51.488;0.152;2023-02-15T11:12:29;8.80;99.90
29731;DHT22;16639;51.488;0.152;2023-02-15T11:15:00;9.00;99.90
29731;DHT22;16639;51.488;0.152;2023-02-15T11:17:35;9.00;99.90
29731;DHT22;16639;51.488;0.152;2023-02-15T11:20:33;9.10;99.90
29731;DHT22;16639;51.488;0.152;2023-02-15T11:23:06;9.70;99.90
29731;DHT22;16639;51.488;0.152;2023-02-15T11:25:35;9.10;99.90
29731;DHT22;16639;51.488;0.152;2023-02-15T11:28:06;9.20;99.90
29731;DHT22;16639;51.488;0.152;2023-02-15T11:30:45;9.20;99.90
29731;DHT22;16639;51.488;0.152;2023-02-15T11:33:23;9.30;99.90
29731;DHT22;16639;51.488;0.152;2023-02-15T11:36:02;9.30;99.90
29731;DHT22;16639;51.488;0.152;2023-02-15T11:38:33;9.20;99.90
29731;DHT22;16639;51.488;0.152;2023-02-15T11:41:05;9.40;99.90
29731;DHT22;16639;51.488;0.152;2023-02-15T11:46:23;9.40;99.90
29731;DHT22;16639;51.488;0.152;2023-02-15T11:48:51;9.40;99.90
29731;DHT22;16639;51.488;0.152;2023-02-15T11:51:21;9.50;99.90
29731;DHT22;16639;51.488;0.152;2023-02-15T11:53:50;9.50;99.90
29731;DHT22;16639;51.488;0.152;2023-02-15T11:56:22;9.60;99.90
29731;DHT22;16639;51.488;0.152;2023-02-15T11:58:58;9.70;99.90
29731;DHT22;16639;51.488;0.152;2023-02-15T12:01:33;9.70;99.90
29731;DHT22;16639;51.488;0.152;2023-02-15T12:04:24;9.70;99.90
29731;DHT22;16639;51.488;0.152;2023-02-15T12:07:00;9.80;99.90
29731;DHT22;16639;51.488;0.152;2023-02-15T12:15:03;10.00;99.90
29731;DHT22;16639;51.488;0.152;2023-02-15T12:17:40;10.10;99.90
29731;DHT22;16639;51.488;0.152;2023-02-15T12:22:51;10.20;99.90
29731;DHT22;16639;51.488;0.152;2023-02-15T12:27:47;10.30;99.90
29731;DHT22;16639;51.488;0.152;2023-02-15T12:30:36;10.30;99.90
29731;DHT22;16639;51.488;0.152;2023-02-15T12:36:20;10.40;99.90
29731;DHT22;16639;51.488;0.152;2023-02-15T12:39:16;10.50;99.90
29731;DHT22;16639;51.488;0.152;2023-02-15T12:44:26;10.60;99.90
29731;DHT22;16639;51.488;0.152;2023-02-15T12:49:41;10.70;99.90
29731;DHT22;16639;51.488;0.152;2023-02-15T12:54:47;10.70;99.90
29731;DHT22;16639;51.488;0.152;2023-02-15T12:57:25;10.70;99.90
29731;DHT22;16639;51.488;0.152;2023-02-15T13:00:00;10.70;99.90
29731;DHT22;16639;51.488;0.152;2023-02-15T13:02:47;10.70;99.90
29731;DHT22;16639;51.488;0.152;2023-02-15T13:05:22;10.70;99.90
29731;DHT22;16639;51.488;0.152;2023-02-15T13:08:03;10.80;99.90
29731;DHT22;16639;51.488;0.152;2023-02-15T13:10:35;10.80;99.90
29731;DHT22;16639;51.488;0.152;2023-02-15T13:13:16;10.80;99.90
29731;DHT22;16639;51.488;0.152;2023-02-15T13:15:49;10.80;99.90
29731;DHT22;16639;51.488;0.152;2023-02-15T13:18:39;10.80;99.90
29731;DHT22;16639;51.488;0.152;2023-02-15T13:21:18;10.90;99.90
29731;DHT22;16639;51.488;0.152;2023-02-15T13:23:53;11.00;99.90
29731;DHT22;16639;51.488;0.152;2023-02-15T13:26:26;10.90;99.90
29731;DHT22;16639;51.488;0.152;2023-02-15T13:29:00;11.00;99.90
29731;DHT22;16639;51.488;0.152;2023-02-15T13:31:29;11.10;99.90
29731;DHT22;16639;51.488;0.152;2023-02-15T13:34:09;11.00;99.90
29731;DHT22;16639;51.488;0.152;2023-02-15T13:36:51;11.10;99.90
29731;DHT22;16639;51.488;0.152;2023-02-15T13:42:03;11.20;99.90
29731;DHT22;16639;51.488;0.152;2023-02-15T13:47:21;11.30;99.90
29731;DHT22;16639;51.488;0.152;2023-02-15T13:56:02;11.20;99.90
29731;DHT22;16639;51.488;0.152;2023-02-15T14:09:56;11.30;99.90
29731;DHT22;16639;51.488;0.152;2023-02-15T14:15:44;11.40;99.90
29731;DHT22;16639;51.488;0.152;2023-02-15T14:18:19;11.50;99.90
29731;DHT22;16639;51.488;0.152;2023-02-15T14:21:03;11.50;99.90
29731;DHT22;16639;51.488;0.152;2023-02-15T14:32:10;11.60;99.90
29731;DHT22;16639;51.488;0.152;2023-02-15T14:34:59;11.60;99.90
29731;DHT22;16639;51.488;0.152;2023-02-15T14:46:16;11.60;99.90
29731;DHT22;16639;51.488;0.152;2023-02-15T14:48:49;11.70;99.90
29731;DHT22;16639;51.488;0.152;2023-02-15T14:54:07;11.80;99.90
29731;DHT22;16639;51.488;0.152;2023-02-15T14:56:34;11.80;99.90
29731;DHT22;16639;51.488;0.152;2023-02-15T15:04:35;11.90;99.90
29731;DHT22;16639;51.488;0.152;2023-02-15T15:07:24;11.70;99.90
29731;DHT22;16639;51.488;0.152;2023-02-15T15:12:54;11.60;99.90
29731;DHT22;16639;51.488;0.152;2023-02-15T15:25:59;11.60;99.90
29731;DHT22;16639;51.488;0.152;2023-02-15T15:36:46;11.70;99.90
29731;DHT22;16639;51.488;0.152;2023-02-15T15:45:23;11.60;99.90
29731;DHT22;16639;51.488;0.152;2023-02-15T15:48:32;12.30;99.90
29731;DHT22;16639;51.488;0.152;2023-02-15T15:51:05;11.60;99.90
29731;DHT22;16639;51.488;0.152;2023-02-15T15:53:40;11.60;99.90
29731;DHT22;16639;51.488;0.152;2023-02-15T15:56:14;11.60;99.90
29731;DHT22;16639;51.488;0.152;2023-02-15T15:58:46;11.50;99.90
29731;DHT22;16639;51.488;0.152;2023-02-15T16:01:16;11.50;99.90
29731;DHT22;16639;51.488;0.152;2023-02-15T16:03:53;11.40;99.90
29731;DHT22;16639;51.488;0.152;2023-02-15T16:06:36;11.40;99.90
29731;DHT22;16639;51.488;0.152;2023-02-15T16:09:25;11.40;99.90
29731;DHT22;16639;51.488;0.152;2023-02-15T16:11:55;11.40;99.90
29731;DHT22;16639;51.488;0.152;2023-02-15T16:14:38;11.40;99.90
29731;DHT22;16639;51.488;0.152;2023-02-15T16:17:13;11.40;99.90
29731;DHT22;16639;51.488;0.152;2023-02-15T16:19:43;11.30;99.90
29731;DHT22;16639;51.488;0.152;2023-02-15T16:22:15;11.30;99.90
29731;DHT22;16639;51.488;0.152;2023-02-15T16:25:04;11.30;99.90
29731;DHT22;16639;51.488;0.152;2023-02-15T16:27:40;11.30;99.90
29731;DHT22;16639;51.488;0.152;2023-02-15T16:33:14;11.20;99.90
29731;DHT22;16639;51.488;0.152;2023-02-15T16:35:57;11.20;99.90
29731;DHT22;16639;51.488;0.152;2023-02-15T16:38:55;11.80;99.90
29731;DHT22;16639;51.488;0.152;2023-02-15T16:41:31;11.20;99.90
29731;DHT22;16639;51.488;0.152;2023-02-15T16:44:05;11.10;99.90
29731;DHT22;16639;51.488;0.152;2023-02-15T16:46:36;11.00;99.90
29731;DHT22;16639;51.488;0.152;2023-02-15T16:49:13;11.00;99.90
29731;DHT22;16639;51.488;0.152;2023-02-15T16:51:43;11.00;99.90
29731;DHT22;16639;51.488;0.152;2023-02-15T16:54:18;10.90;99.90
29731;DHT22;16639;51.488;0.152;2023-02-15T16:56:47;10.90;99.90
29731;DHT22;16639;51.488;0.152;2023-02-15T16:59:38;10.90;99.90
29731;DHT22;16639;51.488;0.152;2023-02-15T17:02:17;10.80;99.90
29731;DHT22;16639;51.488;0.152;2023-02-15T17:07:48;10.80;99.90
29731;DHT22;16639;51.488;0.152;2023-02-15T17:10:36;10.70;99.90
29731;DHT22;16639;51.488;0.152;2023-02-15T17:13:13;10.70;99.90
29731;DHT22;16639;51.488;0.152;2023-02-15T17:18:55;10.60;99.90
29731;DHT22;16639;51.488;0.152;2023-02-15T17:21:32;10.60;99.90
29731;DHT22;16639;51.488;0.152;2023-02-15T17:24:02;10.50;99.90
29731;DHT22;16639;51.488;0.152;2023-02-15T17:26:36;10.50;99.90
29731;DHT22;16639;51.488;0.152;2023-02-15T17:31:51;10.50;99.90
29731;DHT22;16639;51.488;0.152;2023-02-15T17:40:21;10.50;99.90
29731;DHT22;16639;51.488;0.152;2023-02-15T17:42:49;11.10;99.90
29731;DHT22;16639;51.488;0.152;2023-02-15T17:45:16;10.20;99.90
29731;DHT22;16639;51.488;0.152;2023-02-15T17:47:46;10.40;99.90
29731;DHT22;16639;51.488;0.152;2023-02-15T17:50:22;10.30;99.90
29731;DHT22;16639;51.488;0.152;2023-02-15T17:52:51;10.30;99.90
29731;DHT22;16639;51.488;0.152;2023-02-15T17:55:20;10.30;99.90
29731;DHT22;16639;51.488;0.152;2023-02-15T17:58:12;10.30;99.90
29731;DHT22;16639;51.488;0.152;2023-02-15T18:00:43;10.20;99.90
29731;DHT22;16639;51.488;0.152;2023-02-15T18:03:49;10.20;99.90
29731;DHT22;16639;51.488;0.152;2023-02-15T18:06:38;10.20;99.90
29731;DHT22;16639;51.488;0.152;2023-02-15T18:09:25;10.20;99.90
29731;DHT22;16639;51.488;0.152;2023-02-15T18:14:52;10.20;99.90
29731;DHT22;16639;51.488;0.152;2023-02-15T18:17:44;10.20;99.90
29731;DHT22;16639;51.488;0.152;2023-02-15T18:20:24;10.20;99.90
29731;DHT22;16639;51.488;0.152;2023-02-15T18:22:54;10.20;99.90
29731;DHT22;16639;51.488;0.152;2023-02-15T18:25:22;10.20;99.90
29731;DHT22;16639;51.488;0.152;2023-02-15T18:27:51;10.20;99.90
29731;DHT22;16639;51.488;0.152;2023-02-15T18:30:23;10.20;99.90
29731;DHT22;16639;51.488;0.152;2023-02-15T18:32:54;10.20;99.90
29731;DHT22;16639;51.488;0.152;2023-02-15T18:35:25;10.20;99.90
29731;DHT22;16639;51.488;0.152;2023-02-15T18:37:54;10.20;99.90
29731;DHT22;16639;51.488;0.152;2023-02-15T18:40:24;10.20;99.90
29731;DHT22;16639;51.488;0.152;2023-02-15T18:42:52;10.20;99.90
29731;DHT22;16639;51.488;0.152;2023-02-15T18:45:25;10.20;99.90
29731;DHT22;16639;51.488;0.152;2023-02-15T18:47:54;10.20;99.90
29731;DHT22;16639;51.488;0.152;2023-02-15T18:50:32;10.10;99.90
29731;DHT22;16639;51.488;0.152;2023-02-15T18:53:02;10.10;99.90
29731;DHT22;16639;51.488;0.152;2023-02-15T18:55:29;10.10;99.90
29731;DHT22;16639;51.488;0.152;2023-02-15T18:58:00;10.10;99.90
29731;DHT22;16639;51.488;0.152;2023-02-15T19:00:30;10.10;99.90
29731;DHT22;16639;51.488;0.152;2023-02-15T19:03:01;10.20;99.90
29731;DHT22;16639;51.488;0.152;2023-02-15T19:05:29;10.20;99.90
29731;DHT22;16639;51.488;0.152;2023-02-15T19:07:59;10.20;99.90
29731;DHT22;16639;51.488;0.152;2023-02-15T19:10:29;10.20;99.90
29731;DHT22;16639;51.488;0.152;2023-02-15T19:12:57;10.20;99.90
29731;DHT22;16639;51.488;0.152;2023-02-15T19:15:27;10.10;99.90
29731;DHT22;16639;51.488;0.152;2023-02-15T19:17:56;10.20;99.90
29731;DHT22;16639;51.488;0.152;2023-02-15T19:20:44;10.20;99.90
29731;DHT22;16639;51.488;0.152;2023-02-15T19:23:18;10.20;99.90
29731;DHT22;16639;51.488;0.152;2023-02-15T19:25:48;10.20;99.90
29731;DHT22;16639;51.488;0.152;2023-02-15T19:28:34;10.20;99.90
29731;DHT22;16639;51.488;0.152;2023-02-15T19:31:02;10.20;99.90
29731;DHT22;16639;51.488;0.152;2023-02-15T19:33:29;10.20;99.90
29731;DHT22;16639;51.488;0.152;2023-02-15T19:35:57;10.20;99.90
29731;DHT22;16639;51.488;0.152;2023-02-15T19:38:28;10.20;99.90
29731;DHT22;16639;51.488;0.152;2023-02-15T19:41:00;10.80;99.90
29731;DHT22;16639;51.488;0.152;2023-02-15T19:43:30;10.20;99.90
29731;DHT22;16639;51.488;0.152;2023-02-15T19:45:57;10.40;99.90
29731;DHT22;16639;51.488;0.152;2023-02-15T19:48:25;10.20;99.90
29731;DHT22;16639;51.488;0.152;2023-02-15T19:50:52;10.00;99.90
29731;DHT22;16639;51.488;0.152;2023-02-15T19:53:22;10.20;99.90
29731;DHT22;16639;51.488;0.152;2023-02-15T19:55:51;10.30;99.90
29731;DHT22;16639;51.488;0.152;2023-02-15T19:58:19;9.70;99.90
29731;DHT22;16639;51.488;0.152;2023-02-15T20:00:48;10.30;99.90
29731;DHT22;16639;51.488;0.152;2023-02-15T20:03:16;10.30;99.90
29731;DHT22;16639;51.488;0.152;2023-02-15T20:05:44;10.30;99.90